createdAt,value
2022-11-13T00:02:10.511Z,101579.81
2022-11-13T00:04:37.093Z,101575.34
2022-11-13T00:07:03.719Z,101578.87
2022-11-13T00:14:46.973Z,101573.53
2022-11-13T00:19:55.206Z,101572.53
2022-11-13T00:22:21.880Z,101573.16
2022-11-13T00:24:48.426Z,101581.06
2022-11-13T00:27:14.996Z,101570.59
2022-11-13T00:29:41.605Z,101577.97
2022-11-13T00:32:08.162Z,101570.25
2022-11-13T00:34:46.957Z,101573.56
2022-11-13T00:37:14.549Z,101571.94
2022-11-13T00:39:41.079Z,101575.59
2022-11-13T00:42:07.588Z,101579.09
2022-11-13T00:44:34.343Z,101577.44
2022-11-13T00:47:00.982Z,101584.53
2022-11-13T00:49:27.680Z,101572.53
2022-11-13T00:51:54.214Z,101572.44
2022-11-13T00:54:20.784Z,101579.41
2022-11-13T00:56:47.317Z,101582.34
2022-11-13T00:59:14.043Z,101572.97
2022-11-13T01:01:40.676Z,101572.06
2022-11-13T01:04:07.276Z,101568.34
2022-11-13T01:06:33.818Z,101572.13
2022-11-13T01:09:00.361Z,101568.03
2022-11-13T01:11:29.215Z,101565.41
2022-11-13T01:13:56.352Z,101555.09
2022-11-13T01:16:26.146Z,101561.25
2022-11-13T01:21:47.950Z,101559.13
2022-11-13T01:24:14.499Z,101566.16
2022-11-13T01:26:41.024Z,101554.66
2022-11-13T01:29:22.979Z,101559.03
2022-11-13T01:31:49.564Z,101551.84
2022-11-13T01:34:16.095Z,101545.78
2022-11-13T01:36:42.643Z,101542.41
2022-11-13T01:39:11.575Z,101540.34
2022-11-13T01:41:38.870Z,101537.84
2022-11-13T01:47:44.247Z,101540.12
2022-11-13T01:50:14.788Z,101540.81
2022-11-13T01:52:42.946Z,101536.28
2022-11-13T01:55:15.969Z,101530.97
2022-11-13T01:57:54.224Z,101517.56
2022-11-13T02:00:20.883Z,101519.41
2022-11-13T02:02:47.474Z,101525.63
2022-11-13T02:05:14.098Z,101513.19
2022-11-13T02:07:40.626Z,101516.38
2022-11-13T02:10:07.893Z,101513.34
2022-11-13T02:12:43.616Z,101514.19
2022-11-13T02:15:10.583Z,101508.72
2022-11-13T02:17:54.201Z,101513.72
2022-11-13T02:20:40.550Z,101512.03
2022-11-13T02:23:51.498Z,101510.28
2022-11-13T02:26:21.097Z,101501.72
2022-11-13T02:28:47.664Z,101509.13
2022-11-13T02:31:45.164Z,101509.94
2022-11-13T02:34:42.426Z,101506.50
2022-11-13T02:37:15.813Z,101504.06
2022-11-13T02:44:52.813Z,101493.41
2022-11-13T02:47:19.347Z,101488.97
2022-11-13T02:49:45.899Z,101498.25
2022-11-13T02:57:23.100Z,101499.19
2022-11-13T03:02:31.060Z,101499.41
2022-11-13T03:05:14.020Z,101506.59
2022-11-13T03:08:02.861Z,101507.84
2022-11-13T03:10:46.761Z,101504.37
2022-11-13T03:13:13.356Z,101511.50
2022-11-13T03:15:40.475Z,101514.81
2022-11-13T03:18:07.870Z,101514.66
2022-11-13T03:20:37.114Z,101513.25
2022-11-13T03:23:04.414Z,101510.31
2022-11-13T03:25:30.947Z,101513.84
2022-11-13T03:27:57.509Z,101518.97
2022-11-13T03:30:24.140Z,101511.87
2022-11-13T03:32:57.296Z,101508.91
2022-11-13T03:35:28.613Z,101506.28
2022-11-13T03:37:57.054Z,101518.37
2022-11-13T03:48:36.135Z,101508.88
2022-11-13T03:51:02.794Z,101507.34
2022-11-13T03:53:29.382Z,101511.28
2022-11-13T03:56:27.276Z,101504.03
2022-11-13T03:59:25.083Z,101500.91
2022-11-13T04:02:06.915Z,101504.56
2022-11-13T04:04:33.608Z,101502.19
2022-11-13T04:07:00.275Z,101503.50
2022-11-13T04:09:26.823Z,101505.97
2022-11-13T04:11:53.371Z,101500.81
2022-11-13T04:14:19.956Z,101511.47
2022-11-13T04:16:46.535Z,101512.22
2022-11-13T04:19:13.351Z,101505.66
2022-11-13T04:21:39.874Z,101508.66
2022-11-13T04:24:06.697Z,101506.41
2022-11-13T04:26:33.419Z,101503.19
2022-11-13T04:28:59.967Z,101503.28
2022-11-13T04:31:51.458Z,101500.66
2022-11-13T04:34:33.319Z,101505.03
2022-11-13T04:36:59.902Z,101496.38
2022-11-13T04:39:26.434Z,101495.38
2022-11-13T04:42:11.654Z,101508.06
2022-11-13T04:45:02.621Z,101498.47
2022-11-13T04:47:29.949Z,101504.81
2022-11-13T04:49:56.466Z,101495.44
2022-11-13T04:52:23.007Z,101492.09
2022-11-13T04:54:49.549Z,101492.91
2022-11-13T04:57:16.089Z,101491.59
2022-11-13T05:00:02.303Z,101502.62
2022-11-13T05:05:10.128Z,101496.44
2022-11-13T05:07:37.143Z,101486.88
2022-11-13T05:10:04.378Z,101480.87
2022-11-13T05:12:30.921Z,101490.16
2022-11-13T05:14:57.462Z,101499.25
2022-11-13T05:17:24.004Z,101505.09
2022-11-13T05:20:24.691Z,101501.19
2022-11-13T05:23:07.850Z,101500.00
2022-11-13T05:25:34.453Z,101499.16
2022-11-13T05:28:03.092Z,101500.25
2022-11-13T05:30:29.609Z,101488.34
2022-11-13T05:33:11.230Z,101489.84
2022-11-13T05:35:37.773Z,101492.59
2022-11-13T05:38:04.321Z,101496.84
2022-11-13T05:40:40.903Z,101495.03
2022-11-13T05:43:07.426Z,101496.91
2022-11-13T05:45:33.998Z,101495.28
2022-11-13T05:48:00.526Z,101489.84
2022-11-13T05:50:27.063Z,101489.09
2022-11-13T05:52:53.672Z,101485.09
2022-11-13T05:55:23.297Z,101491.00
2022-11-13T05:57:50.184Z,101481.88
2022-11-13T06:00:17.988Z,101483.53
2022-11-13T06:02:47.449Z,101479.69
2022-11-13T06:05:14.038Z,101479.38
2022-11-13T06:07:40.582Z,101471.28
2022-11-13T06:17:52.883Z,101487.47
2022-11-13T06:20:19.402Z,101488.41
2022-11-13T06:22:46.204Z,101482.00
2022-11-13T06:25:22.075Z,101488.72
2022-11-13T06:27:48.648Z,101484.16
2022-11-13T06:30:15.514Z,101485.25
2022-11-13T06:32:42.042Z,101494.09
2022-11-13T06:35:08.824Z,101492.38
2022-11-13T06:37:35.387Z,101498.16
2022-11-13T06:40:01.991Z,101486.94
2022-11-13T06:45:16.653Z,101495.59
2022-11-13T06:50:36.083Z,101493.75
2022-11-13T06:53:03.100Z,101504.00
2022-11-13T06:56:23.758Z,101506.09
2022-11-13T06:59:10.021Z,101499.19
2022-11-13T07:01:36.755Z,101508.84
2022-11-13T07:04:04.604Z,101514.56
2022-11-13T07:06:31.851Z,101518.59
2022-11-13T07:09:00.475Z,101520.00
2022-11-13T07:11:37.890Z,101528.44
2022-11-13T07:36:08.736Z,101514.81
2022-11-13T07:38:35.875Z,101516.25
2022-11-13T07:44:52.888Z,101524.72
2022-11-13T07:47:11.516Z,101526.31
2022-11-13T07:49:38.237Z,101520.88
2022-11-13T07:52:05.078Z,101514.91
2022-11-13T07:54:31.611Z,101529.66
2022-11-13T07:56:58.198Z,101525.84
2022-11-13T07:59:24.803Z,101525.03
2022-11-13T08:01:51.509Z,101519.09
2022-11-13T08:04:18.138Z,101525.63
2022-11-13T08:06:44.780Z,101522.19
2022-11-13T08:09:11.350Z,101523.72
2022-11-13T08:11:38.012Z,101521.94
2022-11-13T08:14:04.690Z,101524.28
2022-11-13T08:16:31.300Z,101518.75
2022-11-13T08:18:57.918Z,101517.87
2022-11-13T08:21:24.538Z,101528.97
2022-11-13T08:23:51.171Z,101530.50
2022-11-13T08:26:18.874Z,101519.13
2022-11-13T08:28:45.620Z,101518.37
2022-11-13T08:31:13.620Z,101521.84
2022-11-13T08:33:41.256Z,101521.94
2022-11-13T08:36:09.601Z,101517.66
2022-11-13T08:38:36.728Z,101532.13
2022-11-13T08:41:08.999Z,101524.78
2022-11-13T08:43:36.093Z,101525.59
2022-11-13T08:46:02.961Z,101515.06
2022-11-13T08:48:30.306Z,101518.75
2022-11-13T08:50:57.912Z,101520.63
2022-11-13T08:53:25.886Z,101505.97
2022-11-13T08:55:55.354Z,101513.62
2022-11-13T08:58:21.862Z,101513.38
2022-11-13T09:00:48.765Z,101508.88
2022-11-13T09:03:15.285Z,101510.41
2022-11-13T09:05:42.247Z,101517.06
2022-11-13T09:08:09.992Z,101515.84
2022-11-13T09:10:36.578Z,101514.69
2022-11-13T09:13:05.546Z,101513.53
2022-11-13T09:15:32.615Z,101517.72
2022-11-13T09:18:00.337Z,101530.59
2022-11-13T09:20:29.095Z,101520.84
2022-11-13T09:23:00.170Z,101508.28
2022-11-13T09:25:31.453Z,101512.81
2022-11-13T09:28:03.926Z,101511.87
2022-11-13T09:30:30.916Z,101512.06
2022-11-13T09:32:59.582Z,101516.25
2022-11-13T09:35:34.316Z,101514.50
2022-11-13T09:38:11.556Z,101518.16
2022-11-13T09:40:43.278Z,101509.97
2022-11-13T09:43:43.262Z,101506.72
2022-11-13T09:46:25.068Z,101499.94
2022-11-13T09:48:58.617Z,101505.59
2022-11-13T09:51:30.979Z,101497.09
2022-11-13T09:53:59.391Z,101501.47
2022-11-13T09:56:32.444Z,101498.06
2022-11-13T09:58:58.924Z,101485.22
2022-11-13T10:01:54.927Z,101478.53
2022-11-13T10:04:56.007Z,101479.66
2022-11-13T10:07:41.376Z,101485.94
2022-11-13T10:10:28.463Z,101472.00
2022-11-13T10:12:58.951Z,101464.50
2022-11-13T10:15:26.939Z,101462.16
2022-11-13T10:18:05.793Z,101456.31
2022-11-13T10:20:40.055Z,101455.34
2022-11-13T10:23:21.075Z,101443.31
2022-11-13T10:25:48.427Z,101447.63
2022-11-13T10:31:05.108Z,101441.22
2022-11-13T10:33:31.831Z,101446.59
2022-11-13T10:36:20.175Z,101436.81
2022-11-13T10:39:04.855Z,101436.00
2022-11-13T10:41:31.971Z,101425.12
2022-11-13T10:44:04.380Z,101418.03
2022-11-13T10:46:31.771Z,101419.53
2022-11-13T10:48:59.203Z,101422.12
2022-11-13T10:51:35.428Z,101420.66
2022-11-13T10:54:25.040Z,101415.63
2022-11-13T10:57:01.995Z,101402.78
2022-11-13T10:59:40.067Z,101406.87
2022-11-13T11:02:26.545Z,101407.16
2022-11-13T11:05:07.754Z,101407.22
2022-11-13T11:07:41.091Z,101407.00
2022-11-13T11:10:19.761Z,101396.13
2022-11-13T11:12:58.377Z,101390.16
2022-11-13T11:15:46.886Z,101389.97
2022-11-13T11:18:31.044Z,101388.53
2022-11-13T11:21:01.962Z,101384.44
2022-11-13T11:23:55.732Z,101379.06
2022-11-13T11:26:48.706Z,101376.97
2022-11-13T11:29:34.923Z,101376.59
2022-11-13T11:32:12.664Z,101372.31
2022-11-13T11:34:44.600Z,101376.72
2022-11-13T11:37:23.812Z,101367.38
2022-11-13T11:39:57.754Z,101365.37
2022-11-13T11:42:30.406Z,101361.44
2022-11-13T11:45:12.271Z,101364.75
2022-11-13T11:47:39.921Z,101362.59
2022-11-13T11:50:13.382Z,101361.19
2022-11-13T11:52:51.311Z,101370.66
2022-11-13T11:55:49.009Z,101357.81
2022-11-13T11:58:37.465Z,101348.50
2022-11-13T12:01:36.215Z,101347.16
2022-11-13T12:04:21.571Z,101338.59
2022-11-13T12:07:14.250Z,101331.03
2022-11-13T12:10:07.130Z,101334.66
2022-11-13T12:12:48.868Z,101330.41
2022-11-13T12:15:20.824Z,101317.75
2022-11-13T12:18:14.119Z,101316.88
2022-11-13T12:20:52.392Z,101309.75
2022-11-13T12:23:25.193Z,101306.19
2022-11-13T12:26:03.222Z,101295.25
2022-11-13T12:28:41.095Z,101293.88
2022-11-13T12:31:16.345Z,101288.88
2022-11-13T12:34:01.756Z,101279.06
2022-11-13T12:36:29.718Z,101285.97
2022-11-13T12:42:36.396Z,101273.31
2022-11-13T12:45:02.875Z,101276.81
2022-11-13T12:47:29.578Z,101263.41
2022-11-13T12:50:22.079Z,101272.59
2022-11-13T12:52:59.802Z,101265.53
2022-11-13T12:55:29.924Z,101254.37
2022-11-13T12:58:07.458Z,101260.34
2022-11-13T13:00:36.244Z,101267.13
2022-11-13T13:03:38.633Z,101263.47
2022-11-13T13:09:02.827Z,101253.53
2022-11-13T13:11:44.225Z,101259.78
2022-11-13T13:14:41.536Z,101254.97
2022-11-13T13:17:14.584Z,101250.87
2022-11-13T13:22:30.963Z,101249.28
2022-11-13T13:25:10.608Z,101244.97
2022-11-13T13:27:40.120Z,101244.28
2022-11-13T13:30:17.379Z,101244.47
2022-11-13T13:33:19.163Z,101243.56
2022-11-13T13:35:57.767Z,101240.44
2022-11-13T13:38:33.033Z,101242.41
2022-11-13T13:41:21.235Z,101243.16
2022-11-13T13:43:50.798Z,101238.09
2022-11-13T13:46:24.620Z,101231.81
2022-11-13T13:48:55.572Z,101229.97
2022-11-13T13:51:32.802Z,101229.19
2022-11-13T13:54:02.091Z,101225.00
2022-11-13T13:56:28.662Z,101227.34
2022-11-13T13:58:55.354Z,101223.16
2022-11-13T14:01:35.580Z,101226.13
2022-11-13T14:04:20.907Z,101224.31
2022-11-13T14:09:47.732Z,101227.00
2022-11-13T14:12:22.266Z,101216.66
2022-11-13T14:14:49.121Z,101223.91
2022-11-13T14:17:24.966Z,101221.75
2022-11-13T14:19:53.251Z,101226.53
2022-11-13T14:22:21.315Z,101234.94
2022-11-13T14:25:00.665Z,101217.19
2022-11-13T14:27:28.476Z,101219.94
2022-11-13T14:30:04.057Z,101220.69
2022-11-13T14:32:33.857Z,101228.03
2022-11-13T14:35:03.334Z,101218.47
2022-11-13T14:37:38.730Z,101216.31
2022-11-13T14:40:19.269Z,101218.78
2022-11-13T14:42:50.841Z,101221.13
2022-11-13T15:35:26.766Z,101205.34
2022-11-13T15:37:54.290Z,101203.16
2022-11-13T15:40:21.034Z,101197.00
2022-11-13T15:42:47.740Z,101201.97
2022-11-13T15:45:16.460Z,101194.62
2022-11-13T15:47:43.167Z,101182.66
2022-11-13T15:50:13.810Z,101194.03
2022-11-13T15:52:47.350Z,101201.84
2022-11-13T15:55:28.836Z,101200.59
2022-11-13T15:57:55.752Z,101198.19
2022-11-13T16:00:27.681Z,101203.56
2022-11-13T16:02:56.179Z,101200.06
2022-11-13T16:05:25.839Z,101205.41
2022-11-13T16:07:53.611Z,101200.22
2022-11-13T16:10:31.341Z,101197.53
2022-11-13T16:12:57.847Z,101199.59
2022-11-13T16:15:24.458Z,101183.63
2022-11-13T16:17:55.102Z,101186.13
2022-11-13T16:20:21.789Z,101173.41
2022-11-13T16:22:48.411Z,101186.34
2022-11-13T16:25:19.270Z,101175.66
2022-11-13T16:27:46.579Z,101189.91
2022-11-13T16:30:20.182Z,101201.41
2022-11-13T16:32:47.377Z,101192.22
2022-11-13T16:35:19.770Z,101190.50
2022-11-13T16:37:46.986Z,101184.38
2022-11-13T16:40:21.151Z,101184.84
2022-11-13T16:42:47.986Z,101180.44
2022-11-13T16:45:14.881Z,101179.31
2022-11-13T16:47:41.518Z,101176.50
2022-11-13T16:50:24.047Z,101181.44
2022-11-13T16:52:51.041Z,101186.47
2022-11-13T16:55:17.684Z,101181.50
2022-11-13T17:06:09.264Z,101188.63
2022-11-13T17:08:35.856Z,101188.72
2022-11-13T17:11:02.643Z,101183.00
2022-11-13T17:13:29.632Z,101187.09
2022-11-13T17:16:01.488Z,101183.00
2022-11-13T17:18:28.032Z,101186.81
2022-11-13T17:20:54.605Z,101183.41
2022-11-13T17:23:21.192Z,101178.44
2022-11-13T17:25:47.943Z,101177.09
2022-11-13T17:28:15.991Z,101170.25
2022-11-13T17:30:42.604Z,101174.12
2022-11-13T17:33:09.147Z,101170.50
2022-11-13T17:35:35.663Z,101166.09
2022-11-13T17:38:02.468Z,101164.25
2022-11-13T17:40:29.014Z,101161.81
2022-11-13T17:48:40.969Z,101156.94
2022-11-13T17:51:11.457Z,101155.47
2022-11-13T17:53:39.627Z,101152.88
2022-11-13T17:56:10.393Z,101148.03
2022-11-13T17:58:39.753Z,101152.94
2022-11-13T18:01:10.335Z,101158.84
2022-11-13T18:03:37.181Z,101152.63
2022-11-13T18:06:19.555Z,101158.44
2022-11-13T18:08:46.886Z,101164.31
2022-11-13T18:11:19.216Z,101161.06
2022-11-13T18:13:47.228Z,101168.94
2022-11-13T18:16:20.157Z,101166.78
2022-11-13T18:18:53.571Z,101170.81
2022-11-13T18:21:23.810Z,101178.31
2022-11-13T18:23:57.248Z,101183.78
2022-11-13T18:26:24.741Z,101180.81
2022-11-13T18:28:53.767Z,101181.63
2022-11-13T18:31:20.699Z,101168.87
2022-11-13T18:33:47.825Z,101180.09
2022-11-13T18:36:14.407Z,101170.34
2022-11-13T18:38:41.411Z,101176.47
2022-11-13T18:41:10.902Z,101174.31
2022-11-13T18:43:37.883Z,101174.91
2022-11-13T18:46:06.945Z,101176.47
2022-11-13T18:48:35.634Z,101176.25
2022-11-13T18:51:08.222Z,101178.41
2022-11-13T18:53:37.985Z,101178.63
2022-11-13T18:56:06.890Z,101183.50
2022-11-13T18:58:37.274Z,101181.84
2022-11-13T19:01:27.524Z,101183.75
2022-11-13T19:04:21.148Z,101183.69
2022-11-13T19:06:43.367Z,101185.00
2022-11-13T19:09:15.237Z,101188.56
2022-11-13T19:11:42.996Z,101179.09
2022-11-13T19:14:10.996Z,101178.41
2022-11-13T19:16:45.212Z,101180.34
2022-11-13T19:19:17.923Z,101175.59
2022-11-13T19:21:53.516Z,101177.84
2022-11-13T19:24:20.097Z,101170.97
2022-11-13T19:26:46.754Z,101174.31
2022-11-13T19:29:13.863Z,101180.25
2022-11-13T19:31:40.596Z,101182.91
2022-11-13T19:34:08.302Z,101178.00
2022-11-13T19:36:35.655Z,101176.37
2022-11-13T19:39:03.136Z,101178.03
2022-11-13T19:41:29.942Z,101178.50
2022-11-13T19:43:59.322Z,101176.59
2022-11-13T19:46:26.021Z,101176.25
2022-11-13T19:48:52.567Z,101182.06
2022-11-13T19:51:23.191Z,101190.44
2022-11-13T19:53:54.961Z,101196.25
2022-11-13T19:56:23.032Z,101187.00
2022-11-13T19:58:51.277Z,101183.84
2022-11-13T20:01:23.998Z,101184.91
2022-11-13T20:03:58.911Z,101185.84
2022-11-13T20:06:26.366Z,101183.59
2022-11-13T20:08:52.929Z,101175.09
2022-11-13T20:11:20.496Z,101182.75
2022-11-13T20:13:47.337Z,101188.22
2022-11-13T20:16:30.199Z,101181.00
2022-11-13T20:18:57.828Z,101190.00
2022-11-13T20:21:26.570Z,101187.28
2022-11-13T20:23:55.766Z,101182.56
2022-11-13T20:27:21.540Z,101175.31
2022-11-13T20:30:04.679Z,101182.87
2022-11-13T20:32:31.401Z,101186.19
2022-11-13T20:34:57.980Z,101177.53
2022-11-13T20:37:24.564Z,101177.06
2022-11-13T20:39:51.955Z,101176.13
2022-11-13T20:42:29.231Z,101179.63
2022-11-13T20:44:59.978Z,101177.19
2022-11-13T20:47:27.760Z,101169.97
2022-11-13T20:49:54.303Z,101168.00
2022-11-13T20:52:20.822Z,101175.09
2022-11-13T20:54:47.331Z,101178.12
2022-11-13T20:57:13.927Z,101175.25
2022-11-13T20:59:40.440Z,101172.13
2022-11-13T21:02:07.119Z,101173.47
2022-11-13T21:04:33.900Z,101168.41
2022-11-13T21:07:00.577Z,101172.94
2022-11-13T21:09:27.179Z,101167.59
2022-11-13T21:11:53.757Z,101164.94
2022-11-13T21:14:42.268Z,101166.03
2022-11-13T21:17:09.115Z,101166.16
2022-11-13T21:19:35.693Z,101172.63
2022-11-13T21:22:02.320Z,101184.84
2022-11-13T21:33:09.322Z,101171.44
2022-11-13T21:35:35.887Z,101171.72
2022-11-13T21:38:04.713Z,101169.63
2022-11-13T21:40:31.291Z,101167.16
2022-11-13T21:42:57.916Z,101176.31
2022-11-13T21:56:15.677Z,101166.84
2022-11-13T21:58:43.478Z,101164.03
2022-11-13T22:01:38.547Z,101157.84
2022-11-13T22:04:27.804Z,101161.59
2022-11-13T22:06:54.433Z,101157.00
2022-11-13T22:09:23.877Z,101154.09
2022-11-13T22:11:51.036Z,101159.25
2022-11-13T22:14:17.610Z,101156.66
2022-11-13T22:16:46.743Z,101152.63
2022-11-13T22:24:23.889Z,101155.03
2022-11-13T22:26:50.483Z,101151.09
2022-11-13T22:29:17.243Z,101142.03
2022-11-13T22:31:44.994Z,101144.59
2022-11-13T22:34:11.814Z,101153.97
2022-11-13T22:36:38.427Z,101146.47
2022-11-13T22:39:06.051Z,101143.34
2022-11-13T22:41:34.840Z,101138.75
2022-11-13T22:44:03.141Z,101132.78
2022-11-13T22:46:32.119Z,101131.16
2022-11-13T22:49:17.069Z,101130.69
2022-11-13T22:51:43.605Z,101122.31
2022-11-13T22:54:12.376Z,101120.28
2022-11-13T22:56:40.765Z,101111.03
2022-11-13T22:59:40.266Z,101112.81
2022-11-13T23:05:31.142Z,101104.59
2022-11-13T23:07:57.720Z,101095.56
2022-11-13T23:10:27.668Z,101088.56
2022-11-13T23:12:54.488Z,101086.16
2022-11-13T23:15:21.120Z,101093.47
2022-11-13T23:17:47.713Z,101083.97
2022-11-13T23:20:33.103Z,101093.84
2022-11-13T23:22:59.697Z,101094.66
2022-11-13T23:25:26.316Z,101082.66
2022-11-13T23:27:52.867Z,101085.34
2022-11-13T23:30:42.076Z,101083.47
2022-11-13T23:33:31.430Z,101086.34
2022-11-13T23:36:02.924Z,101086.25
2022-11-13T23:38:29.841Z,101093.16
2022-11-13T23:40:58.533Z,101090.41
2022-11-13T23:43:47.391Z,101092.28
2022-11-13T23:46:13.236Z,101095.50
2022-11-13T23:48:40.283Z,101098.28
2022-11-13T23:51:07.390Z,101091.63
2022-11-13T23:53:33.986Z,101093.44
